Pe Ell, WA

9:00 PM PDT on August 30, 2015 (GMT -0700)
curtis | | Change Station
CLOSE
Current Station
Personal Weather Station
Location: Washington, WA
Elevation: 312 ft
Nearby Weather Stations

Elev 312 ft 46.56 °N, 123.18 °W | Updated 3 seconds ago

Partly Cloudy
Partly Cloudy
58.3 °F
Feels Like 58.3 °F
N
2.0
Wind Variable Wind from NNW
Gusts 4.0 mph

Today
High -- | Low -- °F
--% Chance of Precip.
Yesterday
High -- | Low -- °F
Precip. -- in
6:30 AM 7:56 PM
Full, 97% visible
Pressure 30.03 in
Visibility 10.0 miles
Clouds Mostly Cloudy 8000 ft
Dew Point 54 °F
Humidity 86%
Rainfall 0.15 in
Snow Depth Not available.
UV 0 out of 12
Pollen .50 out of 12
Air Quality Not available.
Flu Activity Not available.
METAR KCLS 310355Z AUTO 00000KT 10SM BKN080 17/12 A3003 RMK A01
Pressure 30.03 in
Visibility 10.0 miles
Clouds Mostly Cloudy 8000 ft
Dew Point 54 °F
Humidity 86%
Rainfall 0.15 in
Snow Depth Not available.
UV 0 out of 12
Pollen .50 out of 12
Air Quality Not available.
Flu Activity Not available.
METAR KCLS 310355Z AUTO 00000KT 10SM BKN080 17/12 A3003 RMK A01

10-Day Weather Forecast

×

Almanac

Astronomy

Aug. 30, 2015 Rise Set
Actual Time
Civil Twilight
Nautical Twilight
Astronomical Twilight
Moon
Length of Visible Light
Length of Day
Tomorrow will be .
, % of the Moon is Illuminated

Today's Extremes

State Highs State Lows

Community

WunderPhotos

Upload Photos

1,851,194 photos uploaded!

WunderBlogs® & News

Nearby

Air Quality

  Air Quality AQ Index Pollutant
Not available.

Snow Depth

Station Depth Elevation

Earthquake Activity

City Distance Mag. Time & Date
Minimum magnitude displayed is 2.5.

Coastal Water Temperatures

Place Temperature

Stations

Nearby Weather Stations

Station Location Temp. Windchill Dew Point Humidity Wind Precip. Elev Updated Type